sensor_id;sensor_type;location;lat;lon;timestamp;pressure;altitude;pressure_sealevel;temperature;humidity
7940;BME280;4015;48.888;9.226;2022-09-03T00:01:00;159549.94;;;17.14;64.95
7940;BME280;4015;48.888;9.226;2022-09-03T00:03:37;159528.16;;;17.05;64.66
7940;BME280;4015;48.888;9.226;2022-09-03T00:06:22;159543.56;;;17.11;65.71
7940;BME280;4015;48.888;9.226;2022-09-03T00:09:03;159539.72;;;17.10;65.18
7940;BME280;4015;48.888;9.226;2022-09-03T00:11:37;159561.50;;;17.18;64.09
7940;BME280;4015;48.888;9.226;2022-09-03T00:14:06;159588.44;;;17.29;65.75
7940;BME280;4015;48.888;9.226;2022-09-03T00:16:48;159592.28;;;17.31;64.46
7940;BME280;4015;48.888;9.226;2022-09-03T00:19:19;159614.06;;;17.39;63.49
7940;BME280;4015;48.888;9.226;2022-09-03T00:21:54;159661.53;;;17.58;62.88
7940;BME280;4015;48.888;9.226;2022-09-03T00:24:22;159657.69;;;17.57;62.69
7940;BME280;4015;48.888;9.226;2022-09-03T00:26:52;159643.56;;;17.51;62.76
7940;BME280;4015;48.888;9.226;2022-09-03T00:29:36;159678.19;;;17.65;62.64
7940;BME280;4015;48.888;9.226;2022-09-03T00:32:17;159647.41;;;17.52;62.73
7940;BME280;4015;48.888;9.226;2022-09-03T00:34:48;159660.25;;;17.58;63.42
7940;BME280;4015;48.888;9.226;2022-09-03T00:37:14;159657.69;;;17.57;63.49
7940;BME280;4015;48.888;9.226;2022-09-03T00:39:40;159661.53;;;17.58;63.12
7940;BME280;4015;48.888;9.226;2022-09-03T00:42:38;159682.09;;;17.66;63.46
7940;BME280;4015;48.888;9.226;2022-09-03T00:45:19;159674.38;;;17.63;64.21
7940;BME280;4015;48.888;9.226;2022-09-03T00:48:05;159656.41;;;17.56;64.21
7940;BME280;4015;48.888;9.226;2022-09-03T00:51:08;159665.38;;;17.60;64.33
7940;BME280;4015;48.888;9.226;2022-09-03T00:53:50;159647.41;;;17.52;64.80
7940;BME280;4015;48.888;9.226;2022-09-03T01:01:35;159617.91;;;17.41;65.25
7940;BME280;4015;48.888;9.226;2022-09-03T01:15:16;159641.00;;;17.50;66.89
7940;BME280;4015;48.888;9.226;2022-09-03T01:17:59;159647.41;;;17.52;66.05
7940;BME280;4015;48.888;9.226;2022-09-03T01:29:09;159669.25;;;17.61;66.24
7940;BME280;4015;48.888;9.226;2022-09-03T01:39:33;159671.81;;;17.62;65.34
7940;BME280;4015;48.888;9.226;2022-09-03T01:42:28;159670.53;;;17.62;65.33
7940;BME280;4015;48.888;9.226;2022-09-03T01:58:38;159665.38;;;17.60;66.05
7940;BME280;4015;48.888;9.226;2022-09-03T02:01:22;159671.81;;;17.62;65.83
7940;BME280;4015;48.888;9.226;2022-09-03T02:03:50;159658.97;;;17.57;66.36
7940;BME280;4015;48.888;9.226;2022-09-03T02:06:18;159665.38;;;17.60;65.39
7940;BME280;4015;48.888;9.226;2022-09-03T02:08:45;159691.03;;;17.70;65.87
7940;BME280;4015;48.888;9.226;2022-09-03T02:11:10;159705.22;;;17.75;64.61
7940;BME280;4015;48.888;9.226;2022-09-03T02:13:45;159710.31;;;17.77;65.19
7940;BME280;4015;48.888;9.226;2022-09-03T02:16:21;159697.47;;;17.72;66.06
7940;BME280;4015;48.888;9.226;2022-09-03T02:18:54;159719.31;;;17.81;66.02
7940;BME280;4015;48.888;9.226;2022-09-03T02:21:23;159698.81;;;17.73;65.45
7940;BME280;4015;48.888;9.226;2022-09-03T02:23:49;159703.94;;;17.75;64.56
7940;BME280;4015;48.888;9.226;2022-09-03T02:26:18;159711.59;;;17.78;64.94
7940;BME280;4015;48.888;9.226;2022-09-03T02:28:45;159729.59;;;17.85;65.42
7940;BME280;4015;48.888;9.226;2022-09-03T02:31:12;159723.16;;;17.83;66.10
7940;BME280;4015;48.888;9.226;2022-09-03T02:33:39;159715.50;;;17.79;67.75
7940;BME280;4015;48.888;9.226;2022-09-03T02:36:08;159705.22;;;17.75;67.86
7940;BME280;4015;48.888;9.226;2022-09-03T02:38:34;159705.22;;;17.75;65.95
7940;BME280;4015;48.888;9.226;2022-09-03T02:41:00;159711.59;;;17.78;66.91
7940;BME280;4015;48.888;9.226;2022-09-03T02:46:16;159688.47;;;17.69;65.93
7940;BME280;4015;48.888;9.226;2022-09-03T02:48:42;159666.69;;;17.60;68.42
7940;BME280;4015;48.888;9.226;2022-09-03T02:51:07;159629.47;;;17.45;67.69
7940;BME280;4015;48.888;9.226;2022-09-03T02:53:33;159628.19;;;17.45;67.37
7940;BME280;4015;48.888;9.226;2022-09-03T02:55:59;159625.63;;;17.44;68.58
7940;BME280;4015;48.888;9.226;2022-09-03T02:58:24;159598.66;;;17.33;67.11
7940;BME280;4015;48.888;9.226;2022-09-03T03:00:50;159602.50;;;17.35;68.08
7940;BME280;4015;48.888;9.226;2022-09-03T03:03:16;159585.84;;;17.28;69.44
7940;BME280;4015;48.888;9.226;2022-09-03T03:05:51;159573.06;;;17.23;70.45
7940;BME280;4015;48.888;9.226;2022-09-03T03:08:17;159579.44;;;17.25;68.12
7940;BME280;4015;48.888;9.226;2022-09-03T03:10:45;159569.16;;;17.21;68.83
7940;BME280;4015;48.888;9.226;2022-09-03T03:13:11;159551.22;;;17.14;69.17
7940;BME280;4015;48.888;9.226;2022-09-03T03:15:37;159562.78;;;17.19;67.42
7940;BME280;4015;48.888;9.226;2022-09-03T03:18:03;159556.38;;;17.16;69.14
7940;BME280;4015;48.888;9.226;2022-09-03T03:20:28;159548.66;;;17.13;70.20
7940;BME280;4015;48.888;9.226;2022-09-03T03:22:54;159543.56;;;17.11;70.88
7940;BME280;4015;48.888;9.226;2022-09-03T03:25:20;159526.88;;;17.05;71.17
7940;BME280;4015;48.888;9.226;2022-09-03T03:27:46;159517.88;;;17.01;70.96
7940;BME280;4015;48.888;9.226;2022-09-03T03:30:11;159525.59;;;17.04;71.13
7940;BME280;4015;48.888;9.226;2022-09-03T03:32:38;159524.31;;;17.04;71.32
7940;BME280;4015;48.888;9.226;2022-09-03T03:35:04;159497.38;;;16.93;71.48
7940;BME280;4015;48.888;9.226;2022-09-03T03:37:31;159503.78;;;16.95;71.62
7940;BME280;4015;48.888;9.226;2022-09-03T03:39:56;159499.94;;;16.94;71.25
7940;BME280;4015;48.888;9.226;2022-09-03T03:42:22;159496.09;;;16.92;72.09
7940;BME280;4015;48.888;9.226;2022-09-03T03:44:47;159492.25;;;16.91;71.55
7940;BME280;4015;48.888;9.226;2022-09-03T03:47:13;159484.53;;;16.88;71.95
7940;BME280;4015;48.888;9.226;2022-09-03T03:49:41;159487.09;;;16.89;71.78
7940;BME280;4015;48.888;9.226;2022-09-03T03:52:07;159499.94;;;16.94;71.86
7940;BME280;4015;48.888;9.226;2022-09-03T03:54:32;159514.03;;;16.99;72.27
7940;BME280;4015;48.888;9.226;2022-09-03T03:56:57;159499.94;;;16.94;71.99
7940;BME280;4015;48.888;9.226;2022-09-03T03:59:23;159497.38;;;16.93;72.31
7940;BME280;4015;48.888;9.226;2022-09-03T04:01:48;159470.44;;;16.82;71.73
7940;BME280;4015;48.888;9.226;2022-09-03T04:04:15;159479.44;;;16.86;70.68
7940;BME280;4015;48.888;9.226;2022-09-03T04:06:41;159492.25;;;16.91;72.13
7940;BME280;4015;48.888;9.226;2022-09-03T04:09:06;159494.81;;;16.92;72.10
7940;BME280;4015;48.888;9.226;2022-09-03T04:11:31;159499.94;;;16.94;72.02
7940;BME280;4015;48.888;9.226;2022-09-03T04:13:57;159519.16;;;17.02;71.90
7940;BME280;4015;48.888;9.226;2022-09-03T04:16:25;159525.59;;;17.04;70.88
7940;BME280;4015;48.888;9.226;2022-09-03T04:18:52;159526.88;;;17.05;70.11
7940;BME280;4015;48.888;9.226;2022-09-03T04:21:23;159519.16;;;17.02;71.35
7940;BME280;4015;48.888;9.226;2022-09-03T04:23:50;159514.03;;;16.99;70.99
7940;BME280;4015;48.888;9.226;2022-09-03T04:26:19;159523.00;;;17.03;69.90
7940;BME280;4015;48.888;9.226;2022-09-03T04:28:44;159521.72;;;17.03;68.72
7940;BME280;4015;48.888;9.226;2022-09-03T04:31:12;159516.59;;;17.01;69.66
7940;BME280;4015;48.888;9.226;2022-09-03T04:33:38;159507.59;;;16.97;69.91
7940;BME280;4015;48.888;9.226;2022-09-03T04:36:18;159528.16;;;17.05;70.12
7940;BME280;4015;48.888;9.226;2022-09-03T04:38:46;159533.28;;;17.07;70.11
7940;BME280;4015;48.888;9.226;2022-09-03T04:41:14;159529.44;;;17.06;70.99
7940;BME280;4015;48.888;9.226;2022-09-03T04:43:40;159553.78;;;17.15;69.63
7940;BME280;4015;48.888;9.226;2022-09-03T04:46:08;159544.81;;;17.12;70.27
7940;BME280;4015;48.888;9.226;2022-09-03T04:48:35;159538.38;;;17.09;70.20
7940;BME280;4015;48.888;9.226;2022-09-03T04:53:31;159539.72;;;17.10;72.00
7940;BME280;4015;48.888;9.226;2022-09-03T04:55:57;159565.34;;;17.20;71.77
7940;BME280;4015;48.888;9.226;2022-09-03T04:58:22;159553.78;;;17.15;71.50
7940;BME280;4015;48.888;9.226;2022-09-03T05:00:47;159543.56;;;17.11;72.11
7940;BME280;4015;48.888;9.226;2022-09-03T05:03:13;159546.09;;;17.12;70.91
7940;BME280;4015;48.888;9.226;2022-09-03T05:05:38;159534.53;;;17.08;70.38
7940;BME280;4015;48.888;9.226;2022-09-03T05:08:03;159566.63;;;17.20;70.24
7940;BME280;4015;48.888;9.226;2022-09-03T05:10:30;159591.00;;;17.30;71.40
7940;BME280;4015;48.888;9.226;2022-09-03T05:13:00;159614.06;;;17.39;71.58
7940;BME280;4015;48.888;9.226;2022-09-03T05:15:26;159616.63;;;17.40;69.75
7940;BME280;4015;48.888;9.226;2022-09-03T05:17:55;159628.19;;;17.45;68.88
7940;BME280;4015;48.888;9.226;2022-09-03T05:20:20;159643.56;;;17.51;68.86
7940;BME280;4015;48.888;9.226;2022-09-03T05:22:47;159669.25;;;17.61;69.43
7940;BME280;4015;48.888;9.226;2022-09-03T05:25:12;159644.84;;;17.51;67.97
7940;BME280;4015;48.888;9.226;2022-09-03T05:27:37;159639.75;;;17.49;68.77
7940;BME280;4015;48.888;9.226;2022-09-03T05:30:03;159641.00;;;17.50;70.99
7940;BME280;4015;48.888;9.226;2022-09-03T05:32:30;159655.13;;;17.56;71.22
7940;BME280;4015;48.888;9.226;2022-09-03T05:34:55;159671.81;;;17.62;70.99
7940;BME280;4015;48.888;9.226;2022-09-03T05:37:21;159678.19;;;17.65;69.64
7940;BME280;4015;48.888;9.226;2022-09-03T05:39:47;159710.31;;;17.77;69.97
7940;BME280;4015;48.888;9.226;2022-09-03T05:42:13;159746.28;;;17.92;69.92
7940;BME280;4015;48.888;9.226;2022-09-03T05:44:39;159788.59;;;18.09;68.14
7940;BME280;4015;48.888;9.226;2022-09-03T05:47:04;159837.34;;;18.28;68.96
7940;BME280;4015;48.888;9.226;2022-09-03T05:49:30;159852.75;;;18.34;68.01
7940;BME280;4015;48.888;9.226;2022-09-03T05:51:56;159860.47;;;18.37;67.20
7940;BME280;4015;48.888;9.226;2022-09-03T05:54:21;159882.28;;;18.46;66.75
7940;BME280;4015;48.888;9.226;2022-09-03T05:56:47;159901.53;;;18.53;67.58
7940;BME280;4015;48.888;9.226;2022-09-03T05:59:12;159887.41;;;18.48;66.97
7940;BME280;4015;48.888;9.226;2022-09-03T06:01:42;159891.28;;;18.49;68.76
7940;BME280;4015;48.888;9.226;2022-09-03T06:04:13;159845.06;;;18.31;67.98
7940;BME280;4015;48.888;9.226;2022-09-03T06:06:41;159825.84;;;18.23;68.13
7940;BME280;4015;48.888;9.226;2022-09-03T06:09:09;159832.22;;;18.26;69.35
7940;BME280;4015;48.888;9.226;2022-09-03T06:11:36;159870.72;;;18.41;69.18
7940;BME280;4015;48.888;9.226;2022-09-03T06:14:04;159946.50;;;18.71;68.27
7940;BME280;4015;48.888;9.226;2022-09-03T06:16:31;159968.34;;;18.80;68.33
7940;BME280;4015;48.888;9.226;2022-09-03T06:18:58;159992.72;;;18.90;68.46
7940;BME280;4015;48.888;9.226;2022-09-03T06:21:23;159999.16;;;18.92;67.58
7940;BME280;4015;48.888;9.226;2022-09-03T06:23:53;160023.53;;;19.02;66.50
7940;BME280;4015;48.888;9.226;2022-09-03T06:26:23;160051.78;;;19.13;65.76
7940;BME280;4015;48.888;9.226;2022-09-03T06:28:48;160027.38;;;19.03;68.75
7940;BME280;4015;48.888;9.226;2022-09-03T06:31:16;160024.81;;;19.02;66.13
7940;BME280;4015;48.888;9.226;2022-09-03T06:33:43;160059.47;;;19.16;66.19
7940;BME280;4015;48.888;9.226;2022-09-03T06:36:26;160050.50;;;19.12;67.34
7940;BME280;4015;48.888;9.226;2022-09-03T06:38:54;160068.47;;;19.20;66.02
7940;BME280;4015;48.888;9.226;2022-09-03T06:41:25;160085.16;;;19.26;66.80
7940;BME280;4015;48.888;9.226;2022-09-03T06:43:57;160092.84;;;19.29;65.75
7940;BME280;4015;48.888;9.226;2022-09-03T06:46:35;160109.59;;;19.36;66.83
7940;BME280;4015;48.888;9.226;2022-09-03T06:49:02;160105.69;;;19.34;66.12
7940;BME280;4015;48.888;9.226;2022-09-03T06:51:31;160115.97;;;19.38;65.83
7940;BME280;4015;48.888;9.226;2022-09-03T06:54:08;160137.78;;;19.47;66.71
7940;BME280;4015;48.888;9.226;2022-09-03T06:56:35;160140.34;;;19.48;66.91
7940;BME280;4015;48.888;9.226;2022-09-03T06:59:06;160141.69;;;19.49;66.09
7940;BME280;4015;48.888;9.226;2022-09-03T07:01:33;160200.78;;;19.72;66.86
7940;BME280;4015;48.888;9.226;2022-09-03T07:04:01;160214.91;;;19.78;67.53
7940;BME280;4015;48.888;9.226;2022-09-03T07:06:29;160271.44;;;20.00;66.12
7940;BME280;4015;48.888;9.226;2022-09-03T07:08:55;160304.84;;;20.13;65.37
7940;BME280;4015;48.888;9.226;2022-09-03T07:11:24;160344.63;;;20.29;64.22
7940;BME280;4015;48.888;9.226;2022-09-03T07:13:52;160384.53;;;20.45;63.69
7940;BME280;4015;48.888;9.226;2022-09-03T07:16:29;160455.19;;;20.73;62.29
7940;BME280;4015;48.888;9.226;2022-09-03T07:18:55;160479.63;;;20.83;62.48
7940;BME280;4015;48.888;9.226;2022-09-03T07:21:23;160497.63;;;20.90;62.44
7940;BME280;4015;48.888;9.226;2022-09-03T07:23:50;160388.38;;;20.46;62.18
7940;BME280;4015;48.888;9.226;2022-09-03T07:26:18;160408.94;;;20.55;62.38
7940;BME280;4015;48.888;9.226;2022-09-03T07:28:45;160524.63;;;21.00;62.32
7940;BME280;4015;48.888;9.226;2022-09-03T07:31:20;160574.75;;;21.20;61.73
7940;BME280;4015;48.888;9.226;2022-09-03T07:33:46;160594.00;;;21.28;61.41
7940;BME280;4015;48.888;9.226;2022-09-03T07:36:14;160541.31;;;21.07;61.56
7940;BME280;4015;48.888;9.226;2022-09-03T07:38:41;160495.06;;;20.89;62.01
7940;BME280;4015;48.888;9.226;2022-09-03T07:41:08;160545.16;;;21.09;61.06
7940;BME280;4015;48.888;9.226;2022-09-03T07:43:39;160601.78;;;21.31;61.79
7940;BME280;4015;48.888;9.226;2022-09-03T07:46:07;160546.44;;;21.09;60.78
7940;BME280;4015;48.888;9.226;2022-09-03T07:48:32;160524.63;;;21.00;60.94
7940;BME280;4015;48.888;9.226;2022-09-03T07:50:58;160576.00;;;21.21;61.28
7940;BME280;4015;48.888;9.226;2022-09-03T07:53:25;160577.28;;;21.21;61.15
7940;BME280;4015;48.888;9.226;2022-09-03T07:55:51;160608.19;;;21.34;61.94
7940;BME280;4015;48.888;9.226;2022-09-03T07:58:16;160712.34;;;21.75;62.12
7940;BME280;4015;48.888;9.226;2022-09-03T08:00:42;160825.56;;;22.20;60.40
7940;BME280;4015;48.888;9.226;2022-09-03T08:03:07;160904.00;;;22.51;60.31
7940;BME280;4015;48.888;9.226;2022-09-03T08:05:35;160905.28;;;22.51;59.49
7940;BME280;4015;48.888;9.226;2022-09-03T08:08:04;160977.31;;;22.80;58.27
7940;BME280;4015;48.888;9.226;2022-09-03T08:10:34;161040.38;;;23.05;58.24
7940;BME280;4015;48.888;9.226;2022-09-03T08:12:59;161139.44;;;23.44;57.74
7940;BME280;4015;48.888;9.226;2022-09-03T08:15:25;161744.88;;;25.84;52.77
7940;BME280;4015;48.888;9.226;2022-09-03T08:17:51;162058.09;;;27.07;48.44
7940;BME280;4015;48.888;9.226;2022-09-03T08:20:17;161836.31;;;26.20;50.33
7940;BME280;4015;48.888;9.226;2022-09-03T08:22:42;161670.09;;;25.54;52.41
7940;BME280;4015;48.888;9.226;2022-09-03T08:25:08;161429.22;;;24.59;54.00
7940;BME280;4015;48.888;9.226;2022-09-03T08:27:33;161362.19;;;24.32;54.70
7940;BME280;4015;48.888;9.226;2022-09-03T08:29:59;161299.09;;;24.07;56.37
7940;BME280;4015;48.888;9.226;2022-09-03T08:32:25;161216.72;;;23.75;56.86
7940;BME280;4015;48.888;9.226;2022-09-03T08:34:51;161415.03;;;24.53;56.47
7940;BME280;4015;48.888;9.226;2022-09-03T08:37:16;162103.22;;;27.25;50.27
7940;BME280;4015;48.888;9.226;2022-09-03T08:39:43;162767.78;;;29.88;44.40
7940;BME280;4015;48.888;9.226;2022-09-03T08:42:25;162781.97;;;29.93;43.97
7940;BME280;4015;48.888;9.226;2022-09-03T08:45:01;162346.97;;;28.21;46.65
7940;BME280;4015;48.888;9.226;2022-09-03T08:47:39;161938.19;;;26.60;50.11
7940;BME280;4015;48.888;9.226;2022-09-03T08:50:28;161729.41;;;25.77;55.79
7940;BME280;4015;48.888;9.226;2022-09-03T08:53:16;161550.28;;;25.07;58.69
7940;BME280;4015;48.888;9.226;2022-09-03T08:58:20;161796.41;;;26.04;60.21
7940;BME280;4015;48.888;9.226;2022-09-03T09:00:56;161942.06;;;26.61;54.08
7940;BME280;4015;48.888;9.226;2022-09-03T09:03:55;161748.72;;;25.85;56.25
7940;BME280;4015;48.888;9.226;2022-09-03T09:09:16;161345.44;;;24.26;60.96
7940;BME280;4015;48.888;9.226;2022-09-03T09:11:59;161333.88;;;24.21;64.59
7940;BME280;4015;48.888;9.226;2022-09-03T09:14:48;161382.84;;;24.40;59.31
7940;BME280;4015;48.888;9.226;2022-09-03T09:22:32;161537.34;;;25.01;56.58
7940;BME280;4015;48.888;9.226;2022-09-03T09:25:03;161363.50;;;24.33;61.10
7940;BME280;4015;48.888;9.226;2022-09-03T09:27:33;161297.81;;;24.07;61.68
7940;BME280;4015;48.888;9.226;2022-09-03T09:30:03;161421.47;;;24.56;62.04
7940;BME280;4015;48.888;9.226;2022-09-03T09:32:29;161621.16;;;25.35;58.11
7940;BME280;4015;48.888;9.226;2022-09-03T09:34:56;162421.84;;;28.51;51.40
7940;BME280;4015;48.888;9.226;2022-09-03T09:37:21;162812.94;;;30.05;48.25
7940;BME280;4015;48.888;9.226;2022-09-03T09:39:58;162734.22;;;29.74;47.99
7940;BME280;4015;48.888;9.226;2022-09-03T09:42:24;162965.31;;;30.66;46.72
7940;BME280;4015;48.888;9.226;2022-09-03T09:44:50;162633.47;;;29.35;46.98
7940;BME280;4015;48.888;9.226;2022-09-03T09:47:25;162363.75;;;28.28;51.26
7940;BME280;4015;48.888;9.226;2022-09-03T09:52:19;162098.09;;;27.23;52.02
7940;BME280;4015;48.888;9.226;2022-09-03T09:54:50;162236.06;;;27.78;53.12
7940;BME280;4015;48.888;9.226;2022-09-03T09:57:20;163000.22;;;30.79;44.99
7940;BME280;4015;48.888;9.226;2022-09-03T09:59:46;163559.75;;;33.00;42.78
7940;BME280;4015;48.888;9.226;2022-09-03T10:02:24;164077.13;;;35.04;38.86
7940;BME280;4015;48.888;9.226;2022-09-03T10:04:51;163797.69;;;33.94;40.37
7940;BME280;4015;48.888;9.226;2022-09-03T10:10:05;162720.00;;;29.69;46.28
7940;BME280;4015;48.888;9.226;2022-09-03T10:12:39;162508.31;;;28.85;47.59
7940;BME280;4015;48.888;9.226;2022-09-03T10:15:28;162278.63;;;27.94;49.79
7940;BME280;4015;48.888;9.226;2022-09-03T10:18:01;162185.72;;;27.58;50.40
7940;BME280;4015;48.888;9.226;2022-09-03T10:20:31;161911.13;;;26.49;53.50
7940;BME280;4015;48.888;9.226;2022-09-03T10:28:25;164206.53;;;35.55;36.58
7940;BME280;4015;48.888;9.226;2022-09-03T10:45:40;163536.53;;;32.91;42.38
7940;BME280;4015;48.888;9.226;2022-09-03T10:51:00;164521.06;;;36.79;35.44
7940;BME280;4015;48.888;9.226;2022-09-03T10:53:44;164763.22;;;37.74;34.97
7940;BME280;4015;48.888;9.226;2022-09-03T10:56:20;165043.03;;;38.84;33.89
7940;BME280;4015;48.888;9.226;2022-09-03T10:59:07;164192.28;;;35.49;36.08
7940;BME280;4015;48.888;9.226;2022-09-03T11:01:45;163760.19;;;33.79;38.88
7940;BME280;4015;48.888;9.226;2022-09-03T11:07:03;163536.53;;;32.91;40.63
7940;BME280;4015;48.888;9.226;2022-09-03T11:09:35;163581.75;;;33.09;40.33
7940;BME280;4015;48.888;9.226;2022-09-03T11:12:07;163658.03;;;33.39;39.25
7940;BME280;4015;48.888;9.226;2022-09-03T11:14:39;163651.53;;;33.36;40.29
7940;BME280;4015;48.888;9.226;2022-09-03T11:17:15;163691.69;;;33.52;39.72
7940;BME280;4015;48.888;9.226;2022-09-03T11:19:54;163614.06;;;33.21;41.11
7940;BME280;4015;48.888;9.226;2022-09-03T11:22:22;163486.09;;;32.71;39.86
7940;BME280;4015;48.888;9.226;2022-09-03T11:24:53;163373.63;;;32.27;40.68
7940;BME280;4015;48.888;9.226;2022-09-03T11:27:52;163271.53;;;31.86;41.87
7940;BME280;4015;48.888;9.226;2022-09-03T11:30:45;163117.81;;;31.26;41.71
7940;BME280;4015;48.888;9.226;2022-09-03T11:33:17;162788.41;;;29.96;45.36
7940;BME280;4015;48.888;9.226;2022-09-03T11:35:43;162691.63;;;29.58;45.56
7940;BME280;4015;48.888;9.226;2022-09-03T11:41:09;162665.72;;;29.47;47.28
7940;BME280;4015;48.888;9.226;2022-09-03T11:43:37;162540.59;;;28.98;47.41
7940;BME280;4015;48.888;9.226;2022-09-03T11:48:55;162288.97;;;27.99;48.99
7940;BME280;4015;48.888;9.226;2022-09-03T11:54:05;162117.41;;;27.31;51.92
7940;BME280;4015;48.888;9.226;2022-09-03T11:56:33;162055.53;;;27.06;53.11
7940;BME280;4015;48.888;9.226;2022-09-03T11:59:16;161987.19;;;26.79;52.79
7940;BME280;4015;48.888;9.226;2022-09-03T12:04:16;161760.34;;;25.90;54.71
7940;BME280;4015;48.888;9.226;2022-09-03T12:07:00;161644.31;;;25.44;55.84
7940;BME280;4015;48.888;9.226;2022-09-03T12:15:24;161492.31;;;24.84;56.68
7940;BME280;4015;48.888;9.226;2022-09-03T12:20:44;161449.81;;;24.67;57.49
7940;BME280;4015;48.888;9.226;2022-09-03T12:23:11;161421.47;;;24.56;58.48
7940;BME280;4015;48.888;9.226;2022-09-03T12:25:43;161380.28;;;24.39;59.71
7940;BME280;4015;48.888;9.226;2022-09-03T12:28:16;161377.69;;;24.38;59.49
7940;BME280;4015;48.888;9.226;2022-09-03T12:30:43;161345.44;;;24.26;59.85
7940;BME280;4015;48.888;9.226;2022-09-03T12:33:12;161317.16;;;24.14;60.00
7940;BME280;4015;48.888;9.226;2022-09-03T12:35:38;161313.25;;;24.13;60.79
7940;BME280;4015;48.888;9.226;2022-09-03T12:38:03;161315.88;;;24.14;61.39
7940;BME280;4015;48.888;9.226;2022-09-03T12:40:30;161304.28;;;24.09;61.96
7940;BME280;4015;48.888;9.226;2022-09-03T12:43:11;161281.06;;;24.00;63.30
7940;BME280;4015;48.888;9.226;2022-09-03T12:45:43;161272.09;;;23.97;64.39
7940;BME280;4015;48.888;9.226;2022-09-03T12:48:13;161248.91;;;23.87;62.61
7940;BME280;4015;48.888;9.226;2022-09-03T12:50:44;161223.19;;;23.77;62.27
7940;BME280;4015;48.888;9.226;2022-09-03T12:53:13;161202.56;;;23.69;63.45
7940;BME280;4015;48.888;9.226;2022-09-03T12:55:48;161156.19;;;23.51;64.01
7940;BME280;4015;48.888;9.226;2022-09-03T12:58:25;161152.34;;;23.49;66.10
7940;BME280;4015;48.888;9.226;2022-09-03T13:00:56;161131.75;;;23.41;66.35
7940;BME280;4015;48.888;9.226;2022-09-03T13:03:40;160916.84;;;22.56;71.26
7940;BME280;4015;48.888;9.226;2022-09-03T13:06:13;160762.50;;;21.95;73.81
7940;BME280;4015;48.888;9.226;2022-09-03T13:09:09;160726.44;;;21.80;77.37
7940;BME280;4015;48.888;9.226;2022-09-03T13:11:35;160664.78;;;21.56;78.75
7940;BME280;4015;48.888;9.226;2022-09-03T13:14:07;160619.78;;;21.38;79.18
7940;BME280;4015;48.888;9.226;2022-09-03T13:30:12;160640.34;;;21.46;83.86
7940;BME280;4015;48.888;9.226;2022-09-03T13:38:00;161030.13;;;23.01;80.52
7940;BME280;4015;48.888;9.226;2022-09-03T13:43:40;161610.81;;;25.31;71.67
7940;BME280;4015;48.888;9.226;2022-09-03T13:46:12;161748.72;;;25.85;67.81
7940;BME280;4015;48.888;9.226;2022-09-03T13:48:43;162122.56;;;27.33;66.75
7940;BME280;4015;48.888;9.226;2022-09-03T13:51:41;162082.63;;;27.17;64.28
7940;BME280;4015;48.888;9.226;2022-09-03T13:54:25;161809.28;;;26.09;67.61
7940;BME280;4015;48.888;9.226;2022-09-03T13:59:49;161400.88;;;24.47;73.88
7940;BME280;4015;48.888;9.226;2022-09-03T14:02:45;161211.59;;;23.73;74.95
7940;BME280;4015;48.888;9.226;2022-09-03T14:16:37;161183.28;;;23.61;73.72
7940;BME280;4015;48.888;9.226;2022-09-03T14:19:16;161434.34;;;24.61;70.93
7940;BME280;4015;48.888;9.226;2022-09-03T14:21:52;161599.22;;;25.26;67.63
7940;BME280;4015;48.888;9.226;2022-09-03T14:24:56;161556.75;;;25.09;67.16
7940;BME280;4015;48.888;9.226;2022-09-03T14:27:30;161230.88;;;23.80;72.01
7940;BME280;4015;48.888;9.226;2022-09-03T14:32:33;161021.09;;;22.97;76.19
7940;BME280;4015;48.888;9.226;2022-09-03T14:35:14;160950.31;;;22.69;77.12
7940;BME280;4015;48.888;9.226;2022-09-03T14:40:18;160815.25;;;22.16;77.92
7940;BME280;4015;48.888;9.226;2022-09-03T14:45:25;160702.06;;;21.71;80.33
7940;BME280;4015;48.888;9.226;2022-09-03T14:48:10;160669.91;;;21.58;79.69
7940;BME280;4015;48.888;9.226;2022-09-03T14:50:42;160669.91;;;21.58;80.80
7940;BME280;4015;48.888;9.226;2022-09-03T14:53:17;160615.88;;;21.37;80.35
7940;BME280;4015;48.888;9.226;2022-09-03T14:56:08;160606.91;;;21.33;81.70
7940;BME280;4015;48.888;9.226;2022-09-03T15:01:13;160579.84;;;21.22;82.82
7940;BME280;4015;48.888;9.226;2022-09-03T15:09:21;160543.88;;;21.08;86.71
7940;BME280;4015;48.888;9.226;2022-09-03T15:11:55;160564.44;;;21.16;87.59
7940;BME280;4015;48.888;9.226;2022-09-03T15:14:52;160569.63;;;21.18;86.29
7940;BME280;4015;48.888;9.226;2022-09-03T15:17:29;160609.47;;;21.34;87.97
7940;BME280;4015;48.888;9.226;2022-09-03T15:26:21;160831.97;;;22.22;80.41
7940;BME280;4015;48.888;9.226;2022-09-03T15:34:36;162494.13;;;28.80;58.78
7940;BME280;4015;48.888;9.226;2022-09-03T15:37:12;162927.88;;;30.51;56.39
7940;BME280;4015;48.888;9.226;2022-09-03T15:39:42;163060.91;;;31.03;53.14
7940;BME280;4015;48.888;9.226;2022-09-03T15:42:25;163100.97;;;31.19;52.32
7940;BME280;4015;48.888;9.226;2022-09-03T15:44:53;163091.91;;;31.15;54.15
7940;BME280;4015;48.888;9.226;2022-09-03T15:53:28;163104.84;;;31.21;52.88
7940;BME280;4015;48.888;9.226;2022-09-03T16:01:50;162376.69;;;28.33;58.60
7940;BME280;4015;48.888;9.226;2022-09-03T16:04:32;162098.09;;;27.23;62.47
7940;BME280;4015;48.888;9.226;2022-09-03T16:09:50;161920.16;;;26.53;64.57
7940;BME280;4015;48.888;9.226;2022-09-03T16:15:29;161465.25;;;24.73;70.98
7940;BME280;4015;48.888;9.226;2022-09-03T16:20:37;161203.84;;;23.69;75.62
7940;BME280;4015;48.888;9.226;2022-09-03T16:25:55;160987.59;;;22.84;79.66
7940;BME280;4015;48.888;9.226;2022-09-03T16:28:45;160927.13;;;22.60;79.47
7940;BME280;4015;48.888;9.226;2022-09-03T16:31:47;160878.28;;;22.41;80.41
7940;BME280;4015;48.888;9.226;2022-09-03T16:34:42;160871.84;;;22.38;79.33
7940;BME280;4015;48.888;9.226;2022-09-03T16:42:40;160865.41;;;22.35;81.00
7940;BME280;4015;48.888;9.226;2022-09-03T16:47:56;160858.97;;;22.33;81.55
7940;BME280;4015;48.888;9.226;2022-09-03T16:53:34;160843.56;;;22.27;81.00
7940;BME280;4015;48.888;9.226;2022-09-03T17:09:49;160696.94;;;21.69;82.35
7940;BME280;4015;48.888;9.226;2022-09-03T17:29:07;160542.59;;;21.08;85.78
7940;BME280;4015;48.888;9.226;2022-09-03T17:31:47;160480.91;;;20.83;87.01
7940;BME280;4015;48.888;9.226;2022-09-03T17:40:05;160401.25;;;20.52;89.10